createdAt,value
2018-12-03T00:01:55.903Z,11.90
2018-12-03T00:04:24.060Z,11.90
2018-12-03T00:06:51.815Z,11.80
2018-12-03T00:09:19.784Z,11.80
2018-12-03T00:11:47.628Z,11.80
2018-12-03T00:14:15.212Z,11.80
2018-12-03T00:16:42.784Z,11.70
2018-12-03T00:19:10.288Z,11.70
2018-12-03T00:21:37.871Z,11.70
2018-12-03T00:24:06.342Z,11.70
2018-12-03T00:26:33.797Z,11.70
2018-12-03T00:29:01.344Z,11.70
2018-12-03T00:31:28.952Z,11.70
2018-12-03T00:33:56.404Z,11.70
2018-12-03T00:36:23.929Z,11.80
2018-12-03T00:38:51.423Z,11.80
2018-12-03T00:41:19.034Z,11.80
2018-12-03T00:43:46.545Z,11.80
2018-12-03T00:46:14.112Z,11.80
2018-12-03T00:48:41.567Z,11.80
2018-12-03T00:51:09.404Z,11.70
2018-12-03T00:53:36.988Z,11.70
2018-12-03T00:56:04.568Z,11.70
2018-12-03T00:58:32.076Z,11.60
2018-12-03T01:00:59.635Z,11.60
2018-12-03T01:03:27.223Z,11.60
2018-12-03T01:05:54.768Z,11.60
2018-12-03T01:08:22.309Z,11.60
2018-12-03T01:10:50.005Z,11.60
2018-12-03T01:13:17.528Z,11.70
2018-12-03T01:15:45.098Z,11.60
2018-12-03T01:18:12.713Z,11.50
2018-12-03T01:20:40.950Z,11.50
2018-12-03T01:23:08.721Z,11.50
2018-12-03T01:25:36.230Z,11.50
2018-12-03T01:28:03.814Z,11.50
2018-12-03T01:30:31.278Z,11.50
2018-12-03T01:32:58.740Z,11.50
2018-12-03T01:35:26.258Z,11.50
2018-12-03T01:37:53.699Z,11.50
2018-12-03T01:40:22.508Z,11.50
2018-12-03T01:42:50.052Z,11.50
2018-12-03T01:45:17.553Z,11.50
2018-12-03T01:47:45.085Z,11.50
2018-12-03T01:50:13.960Z,11.50
2018-12-03T01:52:41.578Z,11.50
2018-12-03T01:55:09.980Z,11.50
2018-12-03T01:57:37.518Z,11.50
2018-12-03T02:00:11.321Z,11.50
2018-12-03T02:02:39.025Z,11.50
2018-12-03T02:05:07.483Z,11.60
2018-12-03T02:07:34.894Z,11.70
2018-12-03T02:10:02.526Z,11.60
2018-12-03T02:12:30.039Z,11.80
2018-12-03T02:14:57.560Z,11.70
2018-12-03T02:17:25.021Z,11.70
2018-12-03T02:19:52.519Z,11.60
2018-12-03T02:22:20.089Z,11.70
2018-12-03T02:24:47.764Z,11.70
2018-12-03T02:27:15.494Z,11.60
2018-12-03T02:29:42.926Z,11.60
2018-12-03T02:32:10.381Z,11.60
2018-12-03T02:34:37.905Z,11.70
2018-12-03T02:37:05.603Z,11.70
2018-12-03T02:39:38.257Z,11.70
2018-12-03T02:42:05.741Z,11.70
2018-12-03T02:44:33.287Z,11.70
2018-12-03T02:47:00.719Z,11.70
2018-12-03T02:49:28.821Z,11.70
2018-12-03T02:51:56.353Z,11.70
2018-12-03T02:54:23.860Z,11.70
2018-12-03T02:56:51.447Z,11.70
2018-12-03T02:59:22.597Z,11.70
2018-12-03T03:01:50.092Z,11.70
2018-12-03T03:04:17.921Z,11.70
2018-12-03T03:06:45.492Z,11.80
2018-12-03T03:09:12.976Z,11.80
2018-12-03T03:11:40.420Z,11.80
2018-12-03T03:14:08.007Z,11.80
2018-12-03T03:16:35.463Z,11.80
2018-12-03T03:19:02.900Z,11.80
2018-12-03T03:21:30.358Z,11.70
2018-12-03T03:23:57.845Z,11.80
2018-12-03T03:26:25.424Z,11.50
2018-12-03T03:28:52.960Z,11.70
2018-12-03T03:31:20.881Z,11.80
2018-12-03T03:33:48.337Z,11.80
2018-12-03T03:36:15.813Z,11.80
2018-12-03T03:38:43.278Z,11.70
2018-12-03T03:41:10.713Z,11.70
2018-12-03T03:43:38.236Z,11.60
2018-12-03T03:46:05.729Z,11.70
2018-12-03T03:48:33.210Z,11.70
2018-12-03T03:51:00.698Z,11.70
2018-12-03T03:53:28.143Z,11.60
2018-12-03T03:55:55.561Z,11.60
2018-12-03T03:58:23.339Z,11.60
2018-12-03T04:00:50.790Z,11.60
2018-12-03T04:03:18.265Z,11.60
2018-12-03T04:05:45.848Z,11.70
2018-12-03T04:08:13.355Z,11.60
2018-12-03T04:10:40.920Z,11.60
2018-12-03T04:13:08.403Z,11.60
2018-12-03T04:15:35.960Z,11.60
2018-12-03T04:18:03.579Z,11.60
2018-12-03T04:20:31.041Z,11.60
2018-12-03T04:22:58.535Z,11.60
2018-12-03T04:25:25.971Z,11.70
2018-12-03T04:27:53.436Z,11.70
2018-12-03T04:30:21.714Z,11.60
2018-12-03T04:32:49.791Z,11.60
2018-12-03T04:35:17.324Z,11.60
2018-12-03T04:37:44.835Z,11.70
2018-12-03T04:40:14.315Z,11.50
2018-12-03T04:42:41.781Z,11.70
2018-12-03T04:45:11.380Z,11.70
2018-12-03T04:47:39.635Z,11.70
2018-12-03T04:50:11.316Z,11.80
2018-12-03T04:52:38.814Z,11.80
2018-12-03T04:55:06.497Z,11.70
2018-12-03T04:57:34.262Z,11.70
2018-12-03T05:00:01.736Z,11.80
2018-12-03T05:02:29.211Z,11.70
2018-12-03T05:04:56.680Z,11.90
2018-12-03T05:07:24.160Z,11.80
2018-12-03T05:09:51.651Z,11.80
2018-12-03T05:12:19.263Z,11.70
2018-12-03T05:14:46.805Z,11.80
2018-12-03T05:17:14.305Z,11.80
2018-12-03T05:19:41.839Z,11.70
2018-12-03T05:22:09.292Z,11.70
2018-12-03T05:24:36.821Z,11.70
2018-12-03T05:27:04.574Z,11.80
2018-12-03T05:29:32.200Z,11.70
2018-12-03T05:31:59.685Z,11.70
2018-12-03T05:34:27.217Z,11.80
2018-12-03T05:36:54.812Z,11.70
2018-12-03T05:39:22.252Z,11.80
2018-12-03T05:41:49.775Z,11.80
2018-12-03T05:44:17.296Z,11.80
2018-12-03T05:46:44.784Z,11.80
2018-12-03T05:49:12.276Z,11.80
2018-12-03T05:51:39.739Z,11.80
2018-12-03T05:54:11.364Z,11.80
2018-12-03T05:56:39.032Z,11.90
2018-12-03T05:59:06.469Z,11.80
2018-12-03T06:01:34.225Z,11.90
2018-12-03T06:04:01.728Z,11.90
2018-12-03T06:06:29.183Z,11.90
2018-12-03T06:08:56.674Z,11.90
2018-12-03T06:11:24.128Z,11.90
2018-12-03T06:13:51.652Z,11.90
2018-12-03T06:16:19.152Z,11.90
2018-12-03T06:18:46.640Z,11.90
2018-12-03T06:21:14.188Z,11.90
2018-12-03T06:23:41.629Z,11.90
2018-12-03T06:26:09.121Z,11.70
2018-12-03T06:28:36.845Z,11.80
2018-12-03T06:31:04.328Z,11.80
2018-12-03T06:33:32.741Z,11.70
2018-12-03T06:36:00.308Z,11.80
2018-12-03T06:38:27.740Z,11.80
2018-12-03T06:40:55.376Z,11.80
2018-12-03T06:43:22.864Z,11.80
2018-12-03T06:45:50.385Z,11.90
2018-12-03T06:48:20.608Z,11.90
2018-12-03T06:50:48.176Z,11.80
2018-12-03T06:53:15.733Z,11.90
2018-12-03T06:55:43.219Z,11.80
2018-12-03T06:58:10.693Z,11.90
2018-12-03T07:00:38.452Z,11.80
2018-12-03T07:03:05.959Z,11.90
2018-12-03T07:05:33.451Z,11.90
2018-12-03T07:08:01.672Z,11.90
2018-12-03T07:10:29.136Z,11.90
2018-12-03T07:12:58.552Z,11.90
2018-12-03T07:15:26.103Z,11.90
2018-12-03T07:17:55.304Z,11.90
2018-12-03T07:20:22.816Z,11.80
2018-12-03T07:22:50.386Z,12.00
2018-12-03T07:25:17.808Z,11.90
2018-12-03T07:27:46.533Z,11.90
2018-12-03T07:30:19.854Z,11.90
2018-12-03T07:32:48.760Z,11.90
2018-12-03T07:35:17.609Z,11.80
2018-12-03T07:37:45.744Z,11.90
2018-12-03T07:40:14.149Z,11.90
2018-12-03T07:42:43.899Z,11.90
2018-12-03T07:45:16.671Z,11.90
2018-12-03T07:47:45.297Z,11.90
2018-12-03T07:50:15.740Z,12.00
2018-12-03T07:52:43.526Z,12.00
2018-12-03T07:55:17.749Z,12.00
2018-12-03T07:57:49.276Z,12.00
2018-12-03T08:00:22.253Z,12.00
2018-12-03T08:02:50.558Z,12.00
2018-12-03T08:05:18.347Z,12.00
2018-12-03T08:07:45.943Z,12.00
2018-12-03T08:10:14.779Z,12.00
2018-12-03T08:12:45.468Z,11.90
2018-12-03T08:15:19.733Z,11.90
2018-12-03T08:17:57.067Z,12.00
2018-12-03T08:20:38.289Z,12.00
2018-12-03T08:23:08.521Z,12.00
2018-12-03T08:25:37.764Z,12.00
2018-12-03T08:28:06.507Z,12.10
2018-12-03T08:30:34.349Z,12.20
2018-12-03T08:33:02.072Z,12.20
2018-12-03T08:35:29.590Z,12.20
2018-12-03T08:37:57.128Z,12.20
2018-12-03T08:40:24.685Z,12.20
2018-12-03T08:42:53.887Z,12.30
2018-12-03T08:45:23.183Z,12.20
2018-12-03T08:47:51.073Z,12.20
2018-12-03T08:50:25.705Z,12.20
2018-12-03T08:52:55.553Z,12.30
2018-12-03T08:55:23.152Z,12.30
2018-12-03T08:57:50.707Z,12.30
2018-12-03T09:00:33.149Z,12.30
2018-12-03T09:03:04.459Z,12.40
2018-12-03T09:05:35.295Z,12.30
2018-12-03T09:08:03.143Z,12.40
2018-12-03T09:10:31.848Z,12.30
2018-12-03T09:13:08.302Z,12.30
2018-12-03T09:15:36.055Z,12.40
2018-12-03T09:18:03.860Z,12.30
2018-12-03T09:20:31.531Z,12.50
2018-12-03T09:23:01.353Z,12.50
2018-12-03T09:25:29.057Z,12.50
2018-12-03T09:27:57.081Z,12.60
2018-12-03T09:30:27.682Z,12.70
2018-12-03T09:32:52.813Z,12.60
2018-12-03T09:35:21.244Z,12.60
2018-12-03T09:37:54.304Z,12.60
2018-12-03T09:40:25.420Z,12.60
2018-12-03T09:42:53.549Z,12.50
2018-12-03T09:45:21.088Z,12.70
2018-12-03T09:47:54.224Z,12.60
2018-12-03T09:50:23.514Z,12.60
2018-12-03T09:52:51.721Z,12.60
2018-12-03T09:55:20.643Z,12.50
2018-12-03T09:57:56.548Z,12.50
2018-12-03T10:00:25.038Z,12.50
2018-12-03T10:02:53.759Z,12.50
2018-12-03T10:05:23.092Z,12.50
2018-12-03T10:07:51.023Z,12.50
2018-12-03T10:10:18.841Z,12.50
2018-12-03T10:12:46.577Z,12.50
2018-12-03T10:15:14.241Z,12.60
2018-12-03T10:17:46.881Z,12.60
2018-12-03T10:20:15.872Z,12.60
2018-12-03T10:22:48.192Z,12.60
2018-12-03T10:25:16.841Z,12.60
2018-12-03T10:27:44.956Z,12.60
2018-12-03T10:30:18.136Z,12.60
2018-12-03T10:32:48.080Z,12.60
2018-12-03T10:35:19.623Z,12.70
2018-12-03T10:37:48.092Z,12.70
2018-12-03T10:40:18.816Z,12.70
2018-12-03T10:42:47.399Z,12.50
2018-12-03T10:45:26.152Z,12.70
2018-12-03T10:47:55.876Z,12.80
2018-12-03T10:50:23.708Z,12.90
2018-12-03T10:52:51.673Z,12.90
2018-12-03T10:55:19.807Z,12.90
2018-12-03T10:57:47.308Z,12.90
2018-12-03T11:00:25.542Z,12.90
2018-12-03T11:02:59.225Z,13.00
2018-12-03T11:05:37.090Z,12.90
2018-12-03T11:08:05.849Z,12.80
2018-12-03T11:10:39.820Z,12.80
2018-12-03T11:13:07.534Z,12.80
2018-12-03T11:15:35.230Z,12.80
2018-12-03T11:18:08.541Z,12.80
2018-12-03T11:20:36.197Z,13.00
2018-12-03T11:23:04.177Z,13.00
2018-12-03T11:25:34.906Z,12.90
2018-12-03T11:28:04.925Z,12.80
2018-12-03T11:30:38.385Z,12.70
2018-12-03T11:33:06.787Z,12.60
2018-12-03T11:35:34.812Z,12.50
2018-12-03T11:38:10.766Z,12.40
2018-12-03T11:40:43.532Z,12.30
2018-12-03T11:43:12.699Z,12.30
2018-12-03T11:45:41.406Z,12.20
2018-12-03T11:48:09.078Z,12.20
2018-12-03T11:50:36.596Z,12.20
2018-12-03T11:53:04.381Z,12.20
2018-12-03T11:55:31.863Z,12.00
2018-12-03T11:57:59.576Z,12.20
2018-12-03T12:00:27.090Z,12.20
2018-12-03T12:02:55.897Z,12.30
2018-12-03T12:05:23.419Z,12.20
2018-12-03T12:08:52.178Z,12.20
2018-12-03T12:11:29.750Z,12.20
2018-12-03T12:14:01.160Z,12.20
2018-12-03T12:16:34.820Z,12.20
2018-12-03T12:19:08.268Z,12.20
2018-12-03T12:21:49.010Z,12.10
2018-12-03T12:24:23.026Z,12.10
2018-12-03T12:26:57.092Z,12.10
2018-12-03T12:32:29.533Z,12.10
2018-12-03T12:35:10.020Z,12.10
2018-12-03T12:37:43.725Z,12.10
2018-12-03T12:40:19.152Z,12.00
2018-12-03T12:42:52.292Z,12.00
2018-12-03T12:45:28.028Z,12.00
2018-12-03T12:48:01.942Z,12.00
2018-12-03T12:50:36.407Z,11.90
2018-12-03T12:53:10.128Z,11.90
2018-12-03T12:55:45.060Z,12.00
2018-12-03T12:58:19.034Z,12.00
2018-12-03T13:00:52.701Z,12.00
2018-12-03T13:03:25.960Z,12.00
2018-12-03T13:06:00.834Z,11.90
2018-12-03T13:08:36.391Z,11.90
2018-12-03T13:11:10.831Z,11.90
2018-12-03T13:13:45.037Z,11.90
2018-12-03T13:16:29.741Z,11.90
2018-12-03T13:19:14.909Z,11.90
2018-12-03T13:22:07.818Z,11.90
2018-12-03T13:24:51.517Z,11.90
2018-12-03T13:27:25.175Z,11.80
2018-12-03T13:29:58.895Z,11.80
2018-12-03T13:32:40.138Z,11.70
2018-12-03T13:35:24.295Z,11.70
2018-12-03T13:37:58.821Z,11.70
2018-12-03T13:40:34.762Z,11.80
2018-12-03T13:43:17.814Z,11.80
2018-12-03T13:45:54.215Z,11.80
2018-12-03T13:48:31.516Z,11.80
2018-12-03T13:51:09.598Z,11.80
2018-12-03T13:53:45.298Z,11.80
2018-12-03T13:56:18.763Z,11.70
2018-12-03T13:58:53.982Z,11.70
2018-12-03T14:01:27.677Z,11.70
2018-12-03T14:06:58.899Z,11.70
2018-12-03T14:09:44.040Z,11.70
2018-12-03T14:12:19.909Z,11.80
2018-12-03T14:17:57.120Z,11.70
2018-12-03T14:20:34.107Z,11.70
2018-12-03T14:23:10.447Z,11.70
2018-12-03T14:25:44.147Z,11.70
2018-12-03T14:28:17.766Z,11.80
2018-12-03T14:30:51.668Z,11.70
2018-12-03T14:33:26.861Z,11.80
2018-12-03T14:36:01.321Z,11.70
2018-12-03T14:38:46.977Z,11.80
2018-12-03T14:41:25.227Z,11.70
2018-12-03T14:44:09.940Z,11.70
2018-12-03T14:46:43.614Z,11.70
2018-12-03T14:49:18.346Z,11.70
2018-12-03T14:51:52.410Z,11.80
2018-12-03T14:54:26.552Z,11.70
2018-12-03T14:57:04.089Z,11.70
2018-12-03T14:59:37.945Z,11.80
2018-12-03T15:02:15.962Z,11.70
2018-12-03T15:04:55.902Z,11.70
2018-12-03T15:07:29.922Z,11.70
2018-12-03T15:10:05.405Z,11.70
2018-12-03T15:12:39.404Z,11.60
2018-12-03T15:15:20.333Z,11.70
2018-12-03T15:17:54.999Z,11.70
2018-12-03T15:20:28.601Z,11.60
2018-12-03T15:23:03.044Z,11.60
2018-12-03T15:25:46.661Z,11.60
2018-12-03T15:28:24.650Z,11.60
2018-12-03T15:31:00.145Z,11.60
2018-12-03T15:33:34.780Z,11.60
2018-12-03T15:36:10.287Z,11.60
2018-12-03T15:38:50.611Z,11.60
2018-12-03T15:41:25.083Z,11.50
2018-12-03T15:44:00.849Z,11.50
2018-12-03T15:46:32.529Z,11.50
2018-12-03T15:49:07.098Z,11.50
2018-12-03T15:51:42.656Z,11.50
2018-12-03T15:54:16.985Z,11.50
2018-12-03T15:56:51.380Z,11.40
2018-12-03T15:59:25.868Z,11.40
2018-12-03T16:05:01.216Z,11.40
2018-12-03T16:07:36.091Z,11.40
2018-12-03T16:10:25.142Z,11.30
2018-12-03T16:13:03.549Z,11.30
2018-12-03T16:15:34.611Z,11.30
2018-12-03T16:18:12.868Z,11.30
2018-12-03T16:20:45.185Z,11.30
2018-12-03T16:23:18.854Z,11.30
2018-12-03T16:25:54.104Z,11.30
2018-12-03T16:28:34.430Z,11.30
2018-12-03T16:34:19.367Z,11.20
2018-12-03T16:37:00.621Z,11.30
2018-12-03T16:40:01.684Z,11.30
2018-12-03T16:42:34.729Z,11.30
2018-12-03T16:45:08.737Z,11.30
2018-12-03T16:47:43.389Z,11.30
2018-12-03T16:50:18.501Z,11.30
2018-12-03T16:52:53.252Z,11.30
2018-12-03T16:55:26.950Z,11.30
2018-12-03T16:58:00.865Z,11.30
2018-12-03T17:00:35.191Z,11.30
2018-12-03T17:03:08.800Z,11.30
2018-12-03T17:05:42.859Z,11.30
2018-12-03T17:08:16.674Z,11.30
2018-12-03T17:13:54.548Z,11.40
2018-12-03T17:16:40.457Z,11.40
2018-12-03T17:19:14.729Z,11.50
2018-12-03T17:24:36.413Z,11.50
2018-12-03T17:27:10.275Z,11.50
2018-12-03T17:29:43.833Z,11.40
2018-12-03T17:32:17.626Z,11.40
2018-12-03T17:34:56.689Z,11.40
2018-12-03T17:37:32.717Z,11.40
2018-12-03T17:40:08.361Z,11.40
2018-12-03T17:42:49.537Z,11.40
2018-12-03T17:45:25.277Z,11.40
2018-12-03T17:48:03.788Z,11.40
2018-12-03T17:53:37.069Z,11.40
2018-12-03T17:56:11.988Z,11.40
2018-12-03T17:58:47.501Z,11.40
2018-12-03T18:01:21.936Z,11.30
2018-12-03T18:04:01.985Z,11.30
2018-12-03T18:06:37.286Z,11.30
2018-12-03T18:09:11.243Z,11.30
2018-12-03T18:11:44.852Z,11.30
2018-12-03T18:14:28.657Z,11.30
2018-12-03T18:17:01.956Z,11.30
2018-12-03T18:19:35.761Z,11.30
2018-12-03T18:22:09.630Z,11.20
2018-12-03T18:24:47.606Z,11.30
2018-12-03T18:27:22.669Z,11.20
2018-12-03T18:30:02.813Z,11.30
2018-12-03T18:32:42.415Z,11.20
2018-12-03T18:35:16.237Z,11.30
2018-12-03T18:37:49.860Z,11.30
2018-12-03T18:40:23.648Z,11.20
2018-12-03T18:42:55.296Z,11.20
2018-12-03T18:45:29.049Z,11.20
2018-12-03T18:48:02.864Z,11.30
2018-12-03T18:53:39.472Z,11.30
2018-12-03T18:59:00.340Z,11.20
2018-12-03T19:01:34.332Z,11.20
2018-12-03T19:04:08.129Z,11.20
2018-12-03T19:06:43.381Z,11.30
2018-12-03T19:09:17.173Z,11.30
2018-12-03T19:17:56.468Z,11.20
2018-12-03T19:20:25.788Z,11.20
2018-12-03T19:22:59.832Z,11.20
2018-12-03T19:25:31.937Z,11.20
2018-12-03T19:28:13.853Z,11.20
2018-12-03T19:30:47.721Z,11.20
2018-12-03T19:33:28.086Z,11.20
2018-12-03T19:36:02.251Z,11.20
2018-12-03T19:38:38.624Z,11.20
2018-12-03T19:41:13.375Z,11.20
2018-12-03T19:43:59.850Z,11.20
2018-12-03T19:46:46.470Z,11.20
2018-12-03T19:49:21.100Z,11.20
2018-12-03T19:51:55.491Z,11.20
2018-12-03T19:54:40.746Z,11.20
2018-12-03T19:57:21.284Z,11.30
2018-12-03T20:00:00.739Z,11.20
2018-12-03T20:02:38.325Z,11.30
2018-12-03T20:05:17.061Z,11.30
2018-12-03T20:08:01.200Z,11.20
2018-12-03T20:10:44.992Z,11.20
2018-12-03T20:13:20.255Z,11.30
2018-12-03T20:16:04.064Z,11.20
2018-12-03T20:18:38.951Z,11.30
2018-12-03T20:21:16.601Z,11.30
2018-12-03T20:23:57.667Z,11.30
2018-12-03T20:26:33.910Z,11.30
2018-12-03T20:29:20.498Z,11.30
2018-12-03T20:32:04.865Z,11.30
2018-12-03T20:34:44.485Z,11.30
2018-12-03T20:37:28.409Z,11.30
2018-12-03T20:40:13.151Z,11.30
2018-12-03T20:42:49.982Z,11.40
2018-12-03T20:45:32.105Z,11.40
2018-12-03T20:48:06.587Z,11.30
2018-12-03T20:53:28.366Z,11.30
2018-12-03T20:56:12.585Z,11.30
2018-12-03T20:58:59.367Z,11.30
2018-12-03T21:01:34.186Z,11.30
2018-12-03T21:04:21.877Z,11.30
2018-12-03T21:06:54.968Z,11.40
2018-12-03T21:09:28.011Z,11.40
2018-12-03T21:12:12.388Z,11.30
2018-12-03T21:14:54.471Z,11.30
2018-12-03T21:17:30.317Z,11.40
2018-12-03T21:20:07.814Z,11.40
2018-12-03T21:22:47.748Z,11.40
2018-12-03T21:25:20.971Z,11.50
2018-12-03T21:27:54.781Z,11.40
2018-12-03T21:30:28.473Z,11.40
2018-12-03T21:33:02.192Z,11.40
2018-12-03T21:35:36.073Z,11.40
2018-12-03T21:38:20.317Z,11.40
2018-12-03T21:40:51.137Z,11.40
2018-12-03T21:43:24.446Z,11.50
2018-12-03T21:45:59.222Z,11.60
2018-12-03T21:48:34.214Z,11.60
2018-12-03T21:51:07.975Z,11.60
2018-12-03T21:53:41.972Z,11.60
2018-12-03T21:56:15.780Z,11.60
2018-12-03T21:58:49.337Z,11.70
2018-12-03T22:01:22.829Z,11.60
2018-12-03T22:03:57.336Z,11.60
2018-12-03T22:06:32.518Z,11.60
2018-12-03T22:09:06.480Z,11.60
2018-12-03T22:11:40.206Z,11.60
2018-12-03T22:14:17.858Z,11.60
2018-12-03T22:16:49.098Z,11.60
2018-12-03T22:19:19.877Z,11.60
2018-12-03T22:21:55.152Z,11.50
2018-12-03T22:24:30.034Z,11.50
2018-12-03T22:27:04.493Z,11.50
2018-12-03T22:29:38.194Z,11.50
2018-12-03T22:32:12.151Z,11.50
2018-12-03T22:34:56.192Z,11.50
2018-12-03T22:40:27.319Z,11.50
2018-12-03T22:43:00.969Z,11.40
2018-12-03T22:45:28.377Z,11.40
2018-12-03T22:48:01.798Z,11.30
2018-12-03T22:50:33.093Z,11.30
2018-12-03T22:53:06.405Z,11.30
2018-12-03T22:58:38.112Z,11.30
2018-12-03T23:04:09.244Z,11.20
2018-12-03T23:06:40.494Z,11.20
2018-12-03T23:09:13.804Z,11.20
2018-12-03T23:12:00.112Z,11.20
2018-12-03T23:14:34.557Z,11.10
2018-12-03T23:17:08.456Z,11.10
2018-12-03T23:19:42.499Z,11.10
2018-12-03T23:22:15.756Z,11.10
2018-12-03T23:24:49.592Z,11.10
2018-12-03T23:27:23.266Z,11.10
2018-12-03T23:29:57.036Z,11.10
2018-12-03T23:32:43.754Z,11.10
2018-12-03T23:35:20.599Z,11.20
2018-12-03T23:37:54.381Z,11.20
2018-12-03T23:40:29.010Z,11.20
2018-12-03T23:43:02.485Z,11.20
2018-12-03T23:45:35.824Z,11.20
2018-12-03T23:48:07.303Z,11.10
2018-12-03T23:50:38.676Z,11.10
2018-12-03T23:53:12.056Z,11.10
2018-12-03T23:55:45.764Z,11.10
2018-12-03T23:58:23.650Z,11.10
